Lakeview, Michigan
Current Conditions -  °F | °C
As of 9:54 PM on Wednesday 26 Nov 2014 (Local Time) from KRQB Reporting Station
Overcast Overcast  
Wind Chill: 28°   Ceiling: 3900
Heat Index: 28°   Visibility: 10mi
Dew Point: 26°   Wind: 3mph
Humidity: 94%   Direction: 320°NW
Pressure: 30.12"   Gusts: NA
Location:  43.45°N, 85.27°W
Report Text: KRQB 270254Z AUTO 32003KT 10SM OVC039 M02/M03 A3012 RMK AO2 T10251033
Loading
Personal Weather Stations






























Interactive Weather Map New forecast layout! Learn more

10-Day Weather Forecast

Advertisements
Track Severe Weather on mobile